sensor_id;sensor_type;location;lat;lon;timestamp;temperature;humidity
33564;DHT22;19894;48.452;11.494;2022-07-17T00:00:12;22.60;44.00
33564;DHT22;19894;48.452;11.494;2022-07-17T00:02:38;22.60;44.00
33564;DHT22;19894;48.452;11.494;2022-07-17T00:05:04;22.60;44.00
33564;DHT22;19894;48.452;11.494;2022-07-17T00:07:29;22.50;44.00
33564;DHT22;19894;48.452;11.494;2022-07-17T00:09:55;22.60;44.00
33564;DHT22;19894;48.452;11.494;2022-07-17T00:12:21;22.50;44.00
33564;DHT22;19894;48.452;11.494;2022-07-17T00:14:47;22.50;44.00
33564;DHT22;19894;48.452;11.494;2022-07-17T00:17:13;22.50;44.00
33564;DHT22;19894;48.452;11.494;2022-07-17T00:19:39;22.50;44.00
33564;DHT22;19894;48.452;11.494;2022-07-17T00:22:06;22.50;44.00
33564;DHT22;19894;48.452;11.494;2022-07-17T00:24:31;22.50;44.00
33564;DHT22;19894;48.452;11.494;2022-07-17T00:26:58;22.50;44.00
33564;DHT22;19894;48.452;11.494;2022-07-17T00:29:24;22.50;44.00
33564;DHT22;19894;48.452;11.494;2022-07-17T00:31:49;22.50;44.00
33564;DHT22;19894;48.452;11.494;2022-07-17T00:34:15;22.50;43.90
33564;DHT22;19894;48.452;11.494;2022-07-17T00:36:40;22.50;43.90
33564;DHT22;19894;48.452;11.494;2022-07-17T00:39:06;22.50;43.90
33564;DHT22;19894;48.452;11.494;2022-07-17T00:41:32;22.50;44.00
33564;DHT22;19894;48.452;11.494;2022-07-17T00:44:09;22.50;44.00
33564;DHT22;19894;48.452;11.494;2022-07-17T00:46:36;22.60;44.00
33564;DHT22;19894;48.452;11.494;2022-07-17T00:49:02;22.50;43.90
33564;DHT22;19894;48.452;11.494;2022-07-17T00:51:28;22.60;44.00
33564;DHT22;19894;48.452;11.494;2022-07-17T00:53:55;22.60;44.00
33564;DHT22;19894;48.452;11.494;2022-07-17T00:56:21;22.60;44.00
33564;DHT22;19894;48.452;11.494;2022-07-17T00:58:49;22.60;44.00
33564;DHT22;19894;48.452;11.494;2022-07-17T01:01:15;22.60;44.00
33564;DHT22;19894;48.452;11.494;2022-07-17T01:03:41;22.60;43.90
33564;DHT22;19894;48.452;11.494;2022-07-17T01:06:07;22.50;44.40
33564;DHT22;19894;48.452;11.494;2022-07-17T01:08:33;22.50;43.90
33564;DHT22;19894;48.452;11.494;2022-07-17T01:10:59;22.50;43.90
33564;DHT22;19894;48.452;11.494;2022-07-17T01:13:25;22.50;43.90
33564;DHT22;19894;48.452;11.494;2022-07-17T01:15:51;22.50;43.90
33564;DHT22;19894;48.452;11.494;2022-07-17T01:18:16;22.50;43.90
33564;DHT22;19894;48.452;11.494;2022-07-17T01:20:45;22.50;43.90
33564;DHT22;19894;48.452;11.494;2022-07-17T01:23:10;22.50;43.90
33564;DHT22;19894;48.452;11.494;2022-07-17T01:25:36;22.50;43.90
33564;DHT22;19894;48.452;11.494;2022-07-17T01:28:02;22.50;43.80
33564;DHT22;19894;48.452;11.494;2022-07-17T01:30:28;22.50;43.90
33564;DHT22;19894;48.452;11.494;2022-07-17T01:32:54;22.50;43.90
33564;DHT22;19894;48.452;11.494;2022-07-17T01:35:20;22.50;43.90
33564;DHT22;19894;48.452;11.494;2022-07-17T01:37:46;22.50;43.80
33564;DHT22;19894;48.452;11.494;2022-07-17T01:40:13;22.50;43.80
33564;DHT22;19894;48.452;11.494;2022-07-17T01:42:44;22.50;43.80
33564;DHT22;19894;48.452;11.494;2022-07-17T01:45:11;22.50;43.70
33564;DHT22;19894;48.452;11.494;2022-07-17T01:47:37;22.50;43.80
33564;DHT22;19894;48.452;11.494;2022-07-17T01:50:03;22.50;43.70
33564;DHT22;19894;48.452;11.494;2022-07-17T01:52:29;22.50;43.70
33564;DHT22;19894;48.452;11.494;2022-07-17T01:54:55;22.50;43.80
33564;DHT22;19894;48.452;11.494;2022-07-17T01:57:21;22.50;43.80
33564;DHT22;19894;48.452;11.494;2022-07-17T01:59:47;22.50;43.80
33564;DHT22;19894;48.452;11.494;2022-07-17T02:02:13;22.50;43.70
33564;DHT22;19894;48.452;11.494;2022-07-17T02:04:41;22.50;43.70
33564;DHT22;19894;48.452;11.494;2022-07-17T02:07:07;22.50;43.70
33564;DHT22;19894;48.452;11.494;2022-07-17T02:09:33;22.50;43.70
33564;DHT22;19894;48.452;11.494;2022-07-17T02:11:59;22.50;43.70
33564;DHT22;19894;48.452;11.494;2022-07-17T02:14:25;22.50;43.70
33564;DHT22;19894;48.452;11.494;2022-07-17T02:16:51;22.50;43.70
33564;DHT22;19894;48.452;11.494;2022-07-17T02:19:16;22.50;43.70
33564;DHT22;19894;48.452;11.494;2022-07-17T02:21:42;22.50;43.60
33564;DHT22;19894;48.452;11.494;2022-07-17T02:24:07;22.50;43.60
33564;DHT22;19894;48.452;11.494;2022-07-17T02:26:33;22.50;43.60
33564;DHT22;19894;48.452;11.494;2022-07-17T02:28:58;22.50;43.60
33564;DHT22;19894;48.452;11.494;2022-07-17T02:31:24;22.50;43.60
33564;DHT22;19894;48.452;11.494;2022-07-17T02:33:49;22.50;43.60
33564;DHT22;19894;48.452;11.494;2022-07-17T02:36:15;22.50;43.60
33564;DHT22;19894;48.452;11.494;2022-07-17T02:38:41;22.50;43.60
33564;DHT22;19894;48.452;11.494;2022-07-17T02:41:07;22.50;43.60
33564;DHT22;19894;48.452;11.494;2022-07-17T02:43:32;22.50;43.60
33564;DHT22;19894;48.452;11.494;2022-07-17T02:45:58;22.50;43.60
33564;DHT22;19894;48.452;11.494;2022-07-17T02:48:24;22.50;43.60
33564;DHT22;19894;48.452;11.494;2022-07-17T02:50:50;22.50;44.00
33564;DHT22;19894;48.452;11.494;2022-07-17T02:53:15;22.50;43.60
33564;DHT22;19894;48.452;11.494;2022-07-17T02:55:41;22.50;43.60
33564;DHT22;19894;48.452;11.494;2022-07-17T02:58:06;22.50;43.60
33564;DHT22;19894;48.452;11.494;2022-07-17T03:00:32;22.50;43.60
33564;DHT22;19894;48.452;11.494;2022-07-17T03:02:58;22.50;43.50
33564;DHT22;19894;48.452;11.494;2022-07-17T03:05:23;22.50;43.50
33564;DHT22;19894;48.452;11.494;2022-07-17T03:07:49;22.50;43.40
33564;DHT22;19894;48.452;11.494;2022-07-17T03:10:15;22.50;43.50
33564;DHT22;19894;48.452;11.494;2022-07-17T03:12:42;22.50;43.50
33564;DHT22;19894;48.452;11.494;2022-07-17T03:15:08;22.50;43.50
33564;DHT22;19894;48.452;11.494;2022-07-17T03:17:35;22.50;43.50
33564;DHT22;19894;48.452;11.494;2022-07-17T03:20:01;22.50;43.50
33564;DHT22;19894;48.452;11.494;2022-07-17T03:22:26;22.50;43.50
33564;DHT22;19894;48.452;11.494;2022-07-17T03:24:52;22.50;43.40
33564;DHT22;19894;48.452;11.494;2022-07-17T03:27:17;22.50;43.40
33564;DHT22;19894;48.452;11.494;2022-07-17T03:29:44;22.50;43.40
33564;DHT22;19894;48.452;11.494;2022-07-17T03:32:09;22.50;43.40
33564;DHT22;19894;48.452;11.494;2022-07-17T03:34:36;22.40;43.40
33564;DHT22;19894;48.452;11.494;2022-07-17T03:37:02;22.40;43.40
33564;DHT22;19894;48.452;11.494;2022-07-17T03:39:27;22.40;43.40
33564;DHT22;19894;48.452;11.494;2022-07-17T03:41:53;22.40;43.40
33564;DHT22;19894;48.452;11.494;2022-07-17T03:44:18;22.50;43.50
33564;DHT22;19894;48.452;11.494;2022-07-17T03:46:44;22.50;43.50
33564;DHT22;19894;48.452;11.494;2022-07-17T03:49:09;22.50;43.50
33564;DHT22;19894;48.452;11.494;2022-07-17T03:51:35;22.50;43.50
33564;DHT22;19894;48.452;11.494;2022-07-17T03:54:01;22.50;43.50
33564;DHT22;19894;48.452;11.494;2022-07-17T03:56:27;22.50;43.50
33564;DHT22;19894;48.452;11.494;2022-07-17T03:58:52;22.50;43.40
33564;DHT22;19894;48.452;11.494;2022-07-17T04:01:18;22.50;43.50
33564;DHT22;19894;48.452;11.494;2022-07-17T04:03:43;22.50;43.40
33564;DHT22;19894;48.452;11.494;2022-07-17T04:06:09;22.50;43.30
33564;DHT22;19894;48.452;11.494;2022-07-17T04:08:35;22.50;43.40
33564;DHT22;19894;48.452;11.494;2022-07-17T04:11:00;22.50;43.30
33564;DHT22;19894;48.452;11.494;2022-07-17T04:13:26;22.50;43.30
33564;DHT22;19894;48.452;11.494;2022-07-17T04:15:51;22.50;43.30
33564;DHT22;19894;48.452;11.494;2022-07-17T04:18:26;22.40;43.20
33564;DHT22;19894;48.452;11.494;2022-07-17T04:20:53;22.50;43.30
33564;DHT22;19894;48.452;11.494;2022-07-17T04:23:19;22.40;43.20
33564;DHT22;19894;48.452;11.494;2022-07-17T04:25:45;22.40;43.20
33564;DHT22;19894;48.452;11.494;2022-07-17T04:28:11;22.50;43.20
33564;DHT22;19894;48.452;11.494;2022-07-17T04:30:37;22.40;43.20
33564;DHT22;19894;48.452;11.494;2022-07-17T04:33:03;22.40;43.20
33564;DHT22;19894;48.452;11.494;2022-07-17T04:35:29;22.40;43.30
33564;DHT22;19894;48.452;11.494;2022-07-17T04:37:55;22.40;43.30
33564;DHT22;19894;48.452;11.494;2022-07-17T04:40:20;22.40;43.30
33564;DHT22;19894;48.452;11.494;2022-07-17T04:42:46;22.40;43.40
33564;DHT22;19894;48.452;11.494;2022-07-17T04:45:11;22.40;43.90
33564;DHT22;19894;48.452;11.494;2022-07-17T04:47:38;22.40;43.30
33564;DHT22;19894;48.452;11.494;2022-07-17T04:50:04;22.40;43.30
33564;DHT22;19894;48.452;11.494;2022-07-17T04:52:30;22.40;43.30
33564;DHT22;19894;48.452;11.494;2022-07-17T04:54:55;22.40;43.30
33564;DHT22;19894;48.452;11.494;2022-07-17T04:57:21;22.40;43.30
33564;DHT22;19894;48.452;11.494;2022-07-17T04:59:46;22.40;43.30
33564;DHT22;19894;48.452;11.494;2022-07-17T05:02:12;22.40;43.40
33564;DHT22;19894;48.452;11.494;2022-07-17T05:04:38;22.50;43.40
33564;DHT22;19894;48.452;11.494;2022-07-17T05:07:03;22.50;44.00
33564;DHT22;19894;48.452;11.494;2022-07-17T05:09:29;22.50;43.40
33564;DHT22;19894;48.452;11.494;2022-07-17T05:11:54;22.50;43.50
33564;DHT22;19894;48.452;11.494;2022-07-17T05:14:20;22.50;43.50
33564;DHT22;19894;48.452;11.494;2022-07-17T05:16:45;22.40;43.40
33564;DHT22;19894;48.452;11.494;2022-07-17T05:19:11;22.40;43.50
33564;DHT22;19894;48.452;11.494;2022-07-17T05:21:36;22.40;43.50
33564;DHT22;19894;48.452;11.494;2022-07-17T05:24:02;22.40;43.60
33564;DHT22;19894;48.452;11.494;2022-07-17T05:26:28;22.40;44.10
33564;DHT22;19894;48.452;11.494;2022-07-17T05:28:53;22.40;43.70
33564;DHT22;19894;48.452;11.494;2022-07-17T05:31:19;22.40;43.70
33564;DHT22;19894;48.452;11.494;2022-07-17T05:33:44;22.40;43.70
33564;DHT22;19894;48.452;11.494;2022-07-17T05:36:10;22.40;43.80
33564;DHT22;19894;48.452;11.494;2022-07-17T05:38:36;22.40;43.90
33564;DHT22;19894;48.452;11.494;2022-07-17T05:41:03;22.40;43.90
33564;DHT22;19894;48.452;11.494;2022-07-17T05:43:29;22.40;44.00
33564;DHT22;19894;48.452;11.494;2022-07-17T05:45:56;22.40;44.10
33564;DHT22;19894;48.452;11.494;2022-07-17T05:48:21;22.40;44.10
33564;DHT22;19894;48.452;11.494;2022-07-17T05:50:47;22.40;44.20
33564;DHT22;19894;48.452;11.494;2022-07-17T05:53:13;22.40;44.20
33564;DHT22;19894;48.452;11.494;2022-07-17T05:55:40;22.40;44.30
33564;DHT22;19894;48.452;11.494;2022-07-17T05:58:06;22.40;44.20
33564;DHT22;19894;48.452;11.494;2022-07-17T06:00:33;22.50;44.30
33564;DHT22;19894;48.452;11.494;2022-07-17T06:02:59;22.50;44.40
33564;DHT22;19894;48.452;11.494;2022-07-17T06:05:25;22.50;44.40
33564;DHT22;19894;48.452;11.494;2022-07-17T06:07:54;22.50;44.40
33564;DHT22;19894;48.452;11.494;2022-07-17T06:10:21;22.50;44.50
33564;DHT22;19894;48.452;11.494;2022-07-17T06:12:46;22.40;44.50
33564;DHT22;19894;48.452;11.494;2022-07-17T06:15:12;22.50;44.60
33564;DHT22;19894;48.452;11.494;2022-07-17T06:17:38;22.50;44.60
33564;DHT22;19894;48.452;11.494;2022-07-17T06:20:04;22.50;44.70
33564;DHT22;19894;48.452;11.494;2022-07-17T06:22:30;22.50;44.80
33564;DHT22;19894;48.452;11.494;2022-07-17T06:24:55;22.40;44.80
33564;DHT22;19894;48.452;11.494;2022-07-17T06:27:21;22.40;44.90
33564;DHT22;19894;48.452;11.494;2022-07-17T06:29:47;22.40;44.90
33564;DHT22;19894;48.452;11.494;2022-07-17T06:32:13;22.40;45.00
33564;DHT22;19894;48.452;11.494;2022-07-17T06:34:38;22.40;45.10
33564;DHT22;19894;48.452;11.494;2022-07-17T06:37:04;22.40;45.10
33564;DHT22;19894;48.452;11.494;2022-07-17T06:39:30;22.40;45.20
33564;DHT22;19894;48.452;11.494;2022-07-17T06:41:55;22.40;45.30
33564;DHT22;19894;48.452;11.494;2022-07-17T06:44:21;22.40;45.40
33564;DHT22;19894;48.452;11.494;2022-07-17T06:46:47;22.40;45.50
33564;DHT22;19894;48.452;11.494;2022-07-17T06:49:13;22.40;45.60
33564;DHT22;19894;48.452;11.494;2022-07-17T06:51:38;22.40;45.60
33564;DHT22;19894;48.452;11.494;2022-07-17T06:54:04;22.50;45.80
33564;DHT22;19894;48.452;11.494;2022-07-17T06:56:29;22.40;45.70
33564;DHT22;19894;48.452;11.494;2022-07-17T06:58:55;22.50;45.80
33564;DHT22;19894;48.452;11.494;2022-07-17T07:01:20;22.50;45.90
33564;DHT22;19894;48.452;11.494;2022-07-17T07:03:46;22.50;46.00
33564;DHT22;19894;48.452;11.494;2022-07-17T07:06:12;22.50;45.90
33564;DHT22;19894;48.452;11.494;2022-07-17T07:08:37;22.50;46.00
33564;DHT22;19894;48.452;11.494;2022-07-17T07:11:03;22.50;45.90
33564;DHT22;19894;48.452;11.494;2022-07-17T07:13:29;22.50;45.80
33564;DHT22;19894;48.452;11.494;2022-07-17T07:15:54;22.50;45.80
33564;DHT22;19894;48.452;11.494;2022-07-17T07:18:21;22.50;45.70
33564;DHT22;19894;48.452;11.494;2022-07-17T07:20:47;22.50;45.70
33564;DHT22;19894;48.452;11.494;2022-07-17T07:23:13;22.50;45.70
33564;DHT22;19894;48.452;11.494;2022-07-17T07:25:39;22.50;45.70
33564;DHT22;19894;48.452;11.494;2022-07-17T07:28:05;22.50;45.70
33564;DHT22;19894;48.452;11.494;2022-07-17T07:30:31;22.50;45.60
33564;DHT22;19894;48.452;11.494;2022-07-17T07:32:57;22.50;45.60
33564;DHT22;19894;48.452;11.494;2022-07-17T07:35:23;22.50;45.60
33564;DHT22;19894;48.452;11.494;2022-07-17T07:37:48;22.50;45.60
33564;DHT22;19894;48.452;11.494;2022-07-17T07:40:14;22.50;45.50
33564;DHT22;19894;48.452;11.494;2022-07-17T07:42:40;22.40;45.40
33564;DHT22;19894;48.452;11.494;2022-07-17T07:45:06;22.50;45.40
33564;DHT22;19894;48.452;11.494;2022-07-17T07:47:32;22.50;45.40
33564;DHT22;19894;48.452;11.494;2022-07-17T07:49:58;22.40;45.30
33564;DHT22;19894;48.452;11.494;2022-07-17T07:52:23;22.50;45.30
33564;DHT22;19894;48.452;11.494;2022-07-17T07:54:49;22.40;45.20
33564;DHT22;19894;48.452;11.494;2022-07-17T07:57:15;22.50;45.10
33564;DHT22;19894;48.452;11.494;2022-07-17T07:59:40;22.50;45.10
33564;DHT22;19894;48.452;11.494;2022-07-17T08:02:06;22.40;44.90
33564;DHT22;19894;48.452;11.494;2022-07-17T08:04:32;22.50;44.90
33564;DHT22;19894;48.452;11.494;2022-07-17T08:06:58;22.50;44.90
33564;DHT22;19894;48.452;11.494;2022-07-17T08:09:24;22.50;44.80
33564;DHT22;19894;48.452;11.494;2022-07-17T08:11:49;22.50;44.80
33564;DHT22;19894;48.452;11.494;2022-07-17T08:14:15;22.50;44.80
33564;DHT22;19894;48.452;11.494;2022-07-17T08:16:41;22.50;44.70
33564;DHT22;19894;48.452;11.494;2022-07-17T08:19:07;22.50;44.70
33564;DHT22;19894;48.452;11.494;2022-07-17T08:21:32;22.50;44.70
33564;DHT22;19894;48.452;11.494;2022-07-17T08:23:58;22.50;44.70
33564;DHT22;19894;48.452;11.494;2022-07-17T08:26:23;22.50;44.70
33564;DHT22;19894;48.452;11.494;2022-07-17T08:28:49;22.50;44.70
33564;DHT22;19894;48.452;11.494;2022-07-17T08:31:15;22.50;44.80
33564;DHT22;19894;48.452;11.494;2022-07-17T08:33:41;22.50;44.80
33564;DHT22;19894;48.452;11.494;2022-07-17T08:36:06;22.50;44.80
33564;DHT22;19894;48.452;11.494;2022-07-17T08:38:33;22.50;44.80
33564;DHT22;19894;48.452;11.494;2022-07-17T08:40:58;22.50;44.80
33564;DHT22;19894;48.452;11.494;2022-07-17T08:43:25;22.50;44.80
33564;DHT22;19894;48.452;11.494;2022-07-17T08:45:51;22.50;44.90
33564;DHT22;19894;48.452;11.494;2022-07-17T08:48:18;22.50;44.90
33564;DHT22;19894;48.452;11.494;2022-07-17T08:50:44;22.50;44.80
33564;DHT22;19894;48.452;11.494;2022-07-17T08:53:11;22.50;44.80
33564;DHT22;19894;48.452;11.494;2022-07-17T08:55:36;22.50;44.80
33564;DHT22;19894;48.452;11.494;2022-07-17T08:58:02;22.50;44.60
33564;DHT22;19894;48.452;11.494;2022-07-17T09:00:30;22.50;44.60
33564;DHT22;19894;48.452;11.494;2022-07-17T09:03:04;22.50;44.50
33564;DHT22;19894;48.452;11.494;2022-07-17T09:05:37;22.50;44.40
33564;DHT22;19894;48.452;11.494;2022-07-17T09:08:05;22.50;44.40
33564;DHT22;19894;48.452;11.494;2022-07-17T09:10:37;22.50;44.30
33564;DHT22;19894;48.452;11.494;2022-07-17T09:13:21;22.50;44.30
33564;DHT22;19894;48.452;11.494;2022-07-17T09:15:48;22.50;44.40
33564;DHT22;19894;48.452;11.494;2022-07-17T09:18:15;22.50;44.50
33564;DHT22;19894;48.452;11.494;2022-07-17T09:20:46;22.50;44.50
33564;DHT22;19894;48.452;11.494;2022-07-17T09:23:12;22.50;44.40
33564;DHT22;19894;48.452;11.494;2022-07-17T09:25:40;22.50;44.40
33564;DHT22;19894;48.452;11.494;2022-07-17T09:28:08;22.50;44.40
33564;DHT22;19894;48.452;11.494;2022-07-17T09:30:40;22.50;44.50
33564;DHT22;19894;48.452;11.494;2022-07-17T09:33:17;22.50;44.50
33564;DHT22;19894;48.452;11.494;2022-07-17T09:36:07;22.50;44.50
33564;DHT22;19894;48.452;11.494;2022-07-17T09:38:36;22.50;44.40
33564;DHT22;19894;48.452;11.494;2022-07-17T09:41:08;22.50;44.40
33564;DHT22;19894;48.452;11.494;2022-07-17T09:46:13;22.50;44.40
33564;DHT22;19894;48.452;11.494;2022-07-17T09:48:42;22.50;44.30
33564;DHT22;19894;48.452;11.494;2022-07-17T09:51:15;22.40;44.20
33564;DHT22;19894;48.452;11.494;2022-07-17T09:53:44;22.40;44.20
33564;DHT22;19894;48.452;11.494;2022-07-17T09:56:11;22.50;44.20
33564;DHT22;19894;48.452;11.494;2022-07-17T09:58:43;22.50;44.20
33564;DHT22;19894;48.452;11.494;2022-07-17T10:01:10;22.50;44.10
33564;DHT22;19894;48.452;11.494;2022-07-17T10:03:35;22.50;44.10
33564;DHT22;19894;48.452;11.494;2022-07-17T10:06:02;22.50;44.10
33564;DHT22;19894;48.452;11.494;2022-07-17T10:08:28;22.50;44.20
33564;DHT22;19894;48.452;11.494;2022-07-17T10:10:54;22.50;44.20
33564;DHT22;19894;48.452;11.494;2022-07-17T10:13:20;22.50;44.20
33564;DHT22;19894;48.452;11.494;2022-07-17T10:15:46;22.50;44.20
33564;DHT22;19894;48.452;11.494;2022-07-17T10:18:12;22.50;44.10
33564;DHT22;19894;48.452;11.494;2022-07-17T10:20:37;22.50;44.10
33564;DHT22;19894;48.452;11.494;2022-07-17T10:23:13;22.50;44.10
33564;DHT22;19894;48.452;11.494;2022-07-17T10:25:39;22.50;44.20
33564;DHT22;19894;48.452;11.494;2022-07-17T10:28:05;22.50;44.30
33564;DHT22;19894;48.452;11.494;2022-07-17T10:30:33;22.50;44.30
33564;DHT22;19894;48.452;11.494;2022-07-17T10:33:00;22.50;44.20
33564;DHT22;19894;48.452;11.494;2022-07-17T10:35:27;22.50;44.00
33564;DHT22;19894;48.452;11.494;2022-07-17T10:38:08;22.50;43.90
33564;DHT22;19894;48.452;11.494;2022-07-17T10:40:35;22.50;43.90
33564;DHT22;19894;48.452;11.494;2022-07-17T10:43:03;22.50;43.70
33564;DHT22;19894;48.452;11.494;2022-07-17T10:45:34;22.50;43.70
33564;DHT22;19894;48.452;11.494;2022-07-17T10:48:21;22.50;43.70
33564;DHT22;19894;48.452;11.494;2022-07-17T10:50:51;22.50;43.60
33564;DHT22;19894;48.452;11.494;2022-07-17T10:53:31;22.50;43.50
33564;DHT22;19894;48.452;11.494;2022-07-17T10:55:57;22.50;43.40
33564;DHT22;19894;48.452;11.494;2022-07-17T10:58:31;22.50;43.50
33564;DHT22;19894;48.452;11.494;2022-07-17T11:01:04;22.50;43.50
33564;DHT22;19894;48.452;11.494;2022-07-17T11:03:36;22.50;43.60
33564;DHT22;19894;48.452;11.494;2022-07-17T11:06:25;22.50;43.70
33564;DHT22;19894;48.452;11.494;2022-07-17T11:11:23;22.50;43.50
33564;DHT22;19894;48.452;11.494;2022-07-17T11:13:50;22.50;43.50
33564;DHT22;19894;48.452;11.494;2022-07-17T11:16:26;22.50;43.40
33564;DHT22;19894;48.452;11.494;2022-07-17T11:18:52;22.50;43.30
33564;DHT22;19894;48.452;11.494;2022-07-17T11:21:18;22.50;43.20
33564;DHT22;19894;48.452;11.494;2022-07-17T11:23:52;22.50;43.20
33564;DHT22;19894;48.452;11.494;2022-07-17T11:26:18;22.50;43.10
33564;DHT22;19894;48.452;11.494;2022-07-17T11:28:45;22.50;43.10
33564;DHT22;19894;48.452;11.494;2022-07-17T11:34:06;22.50;42.90
33564;DHT22;19894;48.452;11.494;2022-07-17T11:36:44;22.50;42.80
33564;DHT22;19894;48.452;11.494;2022-07-17T11:39:14;22.50;42.70
33564;DHT22;19894;48.452;11.494;2022-07-17T11:41:46;22.50;42.60
33564;DHT22;19894;48.452;11.494;2022-07-17T11:44:18;22.50;42.60
33564;DHT22;19894;48.452;11.494;2022-07-17T11:46:46;22.50;42.40
33564;DHT22;19894;48.452;11.494;2022-07-17T11:49:28;22.50;42.30
33564;DHT22;19894;48.452;11.494;2022-07-17T11:51:56;22.50;42.00
33564;DHT22;19894;48.452;11.494;2022-07-17T11:54:22;22.50;42.00
33564;DHT22;19894;48.452;11.494;2022-07-17T11:56:56;22.50;42.00
33564;DHT22;19894;48.452;11.494;2022-07-17T11:59:26;22.50;42.10
33564;DHT22;19894;48.452;11.494;2022-07-17T12:01:52;22.50;42.20
33564;DHT22;19894;48.452;11.494;2022-07-17T12:04:17;22.50;42.20
33564;DHT22;19894;48.452;11.494;2022-07-17T12:06:44;22.50;42.10
33564;DHT22;19894;48.452;11.494;2022-07-17T12:09:10;22.50;42.20
33564;DHT22;19894;48.452;11.494;2022-07-17T12:11:49;22.50;42.10
33564;DHT22;19894;48.452;11.494;2022-07-17T12:14:15;22.50;42.20
33564;DHT22;19894;48.452;11.494;2022-07-17T12:16:40;22.50;42.30
33564;DHT22;19894;48.452;11.494;2022-07-17T12:19:12;22.50;42.30
33564;DHT22;19894;48.452;11.494;2022-07-17T12:22:01;22.50;42.30
33564;DHT22;19894;48.452;11.494;2022-07-17T12:24:36;22.50;42.50
33564;DHT22;19894;48.452;11.494;2022-07-17T12:27:03;22.50;42.50
33564;DHT22;19894;48.452;11.494;2022-07-17T12:29:30;22.50;42.40
33564;DHT22;19894;48.452;11.494;2022-07-17T12:34:33;22.50;42.50
33564;DHT22;19894;48.452;11.494;2022-07-17T12:36:59;22.50;42.50
33564;DHT22;19894;48.452;11.494;2022-07-17T12:39:25;22.50;42.40
33564;DHT22;19894;48.452;11.494;2022-07-17T12:41:51;22.50;42.40
33564;DHT22;19894;48.452;11.494;2022-07-17T12:44:16;22.50;42.40
33564;DHT22;19894;48.452;11.494;2022-07-17T12:46:42;22.50;42.30
33564;DHT22;19894;48.452;11.494;2022-07-17T12:49:07;22.50;42.30
33564;DHT22;19894;48.452;11.494;2022-07-17T12:51:33;22.50;42.20
33564;DHT22;19894;48.452;11.494;2022-07-17T12:53:59;22.50;42.20
33564;DHT22;19894;48.452;11.494;2022-07-17T12:56:24;22.50;42.70
33564;DHT22;19894;48.452;11.494;2022-07-17T12:58:50;22.50;42.10
33564;DHT22;19894;48.452;11.494;2022-07-17T13:01:16;22.50;42.20
33564;DHT22;19894;48.452;11.494;2022-07-17T13:03:42;22.50;42.30
33564;DHT22;19894;48.452;11.494;2022-07-17T13:06:08;22.50;42.20
33564;DHT22;19894;48.452;11.494;2022-07-17T13:08:34;22.50;42.20
33564;DHT22;19894;48.452;11.494;2022-07-17T13:11:01;22.50;42.10
33564;DHT22;19894;48.452;11.494;2022-07-17T13:13:28;22.50;42.10
33564;DHT22;19894;48.452;11.494;2022-07-17T13:15:54;22.50;42.10
33564;DHT22;19894;48.452;11.494;2022-07-17T13:18:21;22.50;42.10
33564;DHT22;19894;48.452;11.494;2022-07-17T13:20:46;22.50;42.00
33564;DHT22;19894;48.452;11.494;2022-07-17T13:23:13;22.50;42.00
33564;DHT22;19894;48.452;11.494;2022-07-17T13:25:39;22.50;42.10
33564;DHT22;19894;48.452;11.494;2022-07-17T13:28:05;22.50;42.10
33564;DHT22;19894;48.452;11.494;2022-07-17T13:30:33;22.50;42.00
33564;DHT22;19894;48.452;11.494;2022-07-17T13:32:59;22.50;42.10
33564;DHT22;19894;48.452;11.494;2022-07-17T13:35:25;22.50;42.10
33564;DHT22;19894;48.452;11.494;2022-07-17T13:37:51;22.50;42.20
33564;DHT22;19894;48.452;11.494;2022-07-17T13:40:17;22.50;42.20
33564;DHT22;19894;48.452;11.494;2022-07-17T13:42:45;22.50;42.30
33564;DHT22;19894;48.452;11.494;2022-07-17T13:45:11;22.50;42.40
33564;DHT22;19894;48.452;11.494;2022-07-17T13:47:36;22.50;42.50
33564;DHT22;19894;48.452;11.494;2022-07-17T13:50:03;22.50;42.40
33564;DHT22;19894;48.452;11.494;2022-07-17T13:52:29;22.50;42.30
33564;DHT22;19894;48.452;11.494;2022-07-17T13:54:55;22.50;42.50
33564;DHT22;19894;48.452;11.494;2022-07-17T13:57:21;22.50;42.50
33564;DHT22;19894;48.452;11.494;2022-07-17T13:59:46;22.50;42.40
33564;DHT22;19894;48.452;11.494;2022-07-17T14:02:12;22.50;42.20
33564;DHT22;19894;48.452;11.494;2022-07-17T14:04:38;22.50;42.40
33564;DHT22;19894;48.452;11.494;2022-07-17T14:07:03;22.50;42.30
33564;DHT22;19894;48.452;11.494;2022-07-17T14:09:29;22.50;42.30
33564;DHT22;19894;48.452;11.494;2022-07-17T14:11:55;22.50;42.00
33564;DHT22;19894;48.452;11.494;2022-07-17T14:14:20;22.50;41.90
33564;DHT22;19894;48.452;11.494;2022-07-17T14:16:46;22.50;41.80
33564;DHT22;19894;48.452;11.494;2022-07-17T14:19:11;22.50;41.80
33564;DHT22;19894;48.452;11.494;2022-07-17T14:21:38;22.50;41.70
33564;DHT22;19894;48.452;11.494;2022-07-17T14:24:05;22.50;41.50
33564;DHT22;19894;48.452;11.494;2022-07-17T14:26:31;22.50;41.60
33564;DHT22;19894;48.452;11.494;2022-07-17T14:28:57;22.50;41.60
33564;DHT22;19894;48.452;11.494;2022-07-17T14:31:23;22.50;41.50
33564;DHT22;19894;48.452;11.494;2022-07-17T14:33:49;22.50;41.50
33564;DHT22;19894;48.452;11.494;2022-07-17T14:36:15;22.50;41.50
33564;DHT22;19894;48.452;11.494;2022-07-17T14:38:40;22.60;41.60
33564;DHT22;19894;48.452;11.494;2022-07-17T14:41:06;22.50;41.50
33564;DHT22;19894;48.452;11.494;2022-07-17T14:43:32;22.50;41.60
33564;DHT22;19894;48.452;11.494;2022-07-17T14:45:58;22.50;41.60
33564;DHT22;19894;48.452;11.494;2022-07-17T14:48:24;22.50;41.60
33564;DHT22;19894;48.452;11.494;2022-07-17T14:50:49;22.50;41.60
33564;DHT22;19894;48.452;11.494;2022-07-17T14:53:15;22.50;41.60
33564;DHT22;19894;48.452;11.494;2022-07-17T14:55:41;22.50;41.60
33564;DHT22;19894;48.452;11.494;2022-07-17T14:58:06;22.50;41.50
33564;DHT22;19894;48.452;11.494;2022-07-17T15:00:32;22.50;41.70
33564;DHT22;19894;48.452;11.494;2022-07-17T15:02:57;22.50;41.60
33564;DHT22;19894;48.452;11.494;2022-07-17T15:05:23;22.50;41.50
33564;DHT22;19894;48.452;11.494;2022-07-17T15:07:49;22.50;41.50
33564;DHT22;19894;48.452;11.494;2022-07-17T15:10:15;22.50;41.40
33564;DHT22;19894;48.452;11.494;2022-07-17T15:12:40;22.50;41.30
33564;DHT22;19894;48.452;11.494;2022-07-17T15:15:06;22.50;41.20
33564;DHT22;19894;48.452;11.494;2022-07-17T15:17:32;22.50;41.10
33564;DHT22;19894;48.452;11.494;2022-07-17T15:19:58;22.50;41.00
33564;DHT22;19894;48.452;11.494;2022-07-17T15:22:23;22.50;40.90